createdAt,value
2023-04-17T00:00:08.353Z,9.37
2023-04-17T00:02:39.848Z,9.77
2023-04-17T00:05:10.136Z,12.40
2023-04-17T00:07:39.405Z,11.50
2023-04-17T00:10:10.107Z,12.20
2023-04-17T00:12:37.046Z,9.57
2023-04-17T00:15:06.304Z,11.23
2023-04-17T00:17:33.077Z,12.90
2023-04-17T00:19:59.800Z,11.47
2023-04-17T00:22:26.572Z,9.43
2023-04-17T00:24:55.770Z,10.53
2023-04-17T00:27:24.650Z,9.00
2023-04-17T00:29:53.783Z,10.17
2023-04-17T00:32:20.456Z,9.60
2023-04-17T00:34:47.196Z,9.67
2023-04-17T00:37:13.961Z,10.33
2023-04-17T00:39:45.338Z,12.00
2023-04-17T00:42:14.365Z,9.40
2023-04-17T00:44:43.213Z,10.47
2023-04-17T00:47:09.975Z,12.50
2023-04-17T00:49:37.101Z,9.90
2023-04-17T00:52:06.330Z,14.07
2023-04-17T00:54:35.478Z,12.20
2023-04-17T00:57:05.321Z,9.97
2023-04-17T00:59:32.771Z,13.30
2023-04-17T01:02:00.140Z,10.43
2023-04-17T01:04:27.419Z,11.18
2023-04-17T01:06:56.750Z,11.17
2023-04-17T01:09:23.427Z,11.13
2023-04-17T01:11:50.069Z,10.60
2023-04-17T01:14:16.793Z,11.70
2023-04-17T01:16:46.062Z,10.73
2023-04-17T01:19:14.508Z,10.40
2023-04-17T01:21:43.570Z,10.50
2023-04-17T01:24:10.827Z,12.47
2023-04-17T01:26:41.447Z,11.20
2023-04-17T01:29:08.240Z,10.37
2023-04-17T01:31:39.290Z,9.70
2023-04-17T01:34:10.709Z,11.07
2023-04-17T01:36:37.445Z,10.57
2023-04-17T01:39:04.268Z,9.93
2023-04-17T01:41:31.261Z,11.55
2023-04-17T01:43:58.000Z,11.50
2023-04-17T01:46:24.837Z,11.57
2023-04-17T01:48:52.749Z,10.60
2023-04-17T01:51:19.451Z,10.93
2023-04-17T01:53:46.119Z,11.37
2023-04-17T01:56:18.005Z,10.17
2023-04-17T01:58:44.738Z,10.37
2023-04-17T02:01:11.582Z,11.60
2023-04-17T02:03:38.391Z,11.03
2023-04-17T02:06:07.737Z,12.20
2023-04-17T02:08:34.555Z,10.73
2023-04-17T02:11:03.926Z,10.63
2023-04-17T02:13:30.806Z,9.03
2023-04-17T02:15:57.668Z,10.73
2023-04-17T02:18:28.820Z,11.60
2023-04-17T02:20:57.645Z,11.73
2023-04-17T02:23:24.367Z,11.83
2023-04-17T02:25:51.586Z,11.80
2023-04-17T02:28:22.867Z,11.60
2023-04-17T02:30:51.712Z,10.60
2023-04-17T02:33:18.357Z,11.77
2023-04-17T02:35:47.405Z,11.45
2023-04-17T02:38:16.944Z,10.83
2023-04-17T02:40:43.652Z,10.03
2023-04-17T02:43:10.429Z,9.80
2023-04-17T02:45:39.419Z,9.53
2023-04-17T02:48:06.481Z,10.20
2023-04-17T02:50:33.292Z,9.40
2023-04-17T02:53:00.018Z,9.50
2023-04-17T02:55:27.056Z,9.30
2023-04-17T02:57:53.805Z,9.57
2023-04-17T03:00:20.796Z,9.07
2023-04-17T03:02:50.187Z,9.07
2023-04-17T03:05:23.328Z,9.23
2023-04-17T03:07:52.890Z,14.03
2023-04-17T03:10:19.564Z,11.63
2023-04-17T03:12:46.399Z,10.13
2023-04-17T03:15:13.217Z,11.17
2023-04-17T03:17:42.742Z,8.17
2023-04-17T03:20:09.575Z,10.17
2023-04-17T03:22:36.744Z,10.30
2023-04-17T03:25:04.458Z,11.57
2023-04-17T03:27:31.549Z,9.50
2023-04-17T03:30:02.709Z,10.90
2023-04-17T03:32:29.400Z,9.83
2023-04-17T03:34:56.085Z,10.43
2023-04-17T03:37:27.380Z,10.50
2023-04-17T03:39:56.596Z,13.40
2023-04-17T03:42:26.793Z,12.23
2023-04-17T03:44:56.089Z,11.70
2023-04-17T03:47:22.800Z,11.97
2023-04-17T03:49:51.990Z,11.65
2023-04-17T03:52:18.698Z,10.67
2023-04-17T03:54:45.680Z,10.43
2023-04-17T03:57:14.465Z,10.50
2023-04-17T03:59:41.958Z,10.30
2023-04-17T04:02:08.710Z,10.27
2023-04-17T04:04:38.170Z,11.00
2023-04-17T04:07:05.138Z,9.37
2023-04-17T04:09:34.040Z,10.27
2023-04-17T04:12:01.265Z,10.63
2023-04-17T04:14:32.954Z,10.70
2023-04-17T04:16:59.645Z,9.67
2023-04-17T04:19:28.901Z,12.57
2023-04-17T04:21:55.654Z,11.37
2023-04-17T04:24:22.364Z,10.88
2023-04-17T04:26:51.723Z,12.37
2023-04-17T04:29:25.531Z,15.43
2023-04-17T04:31:52.341Z,10.43
2023-04-17T04:34:21.711Z,17.40
2023-04-17T04:36:51.113Z,11.80
2023-04-17T04:39:20.903Z,12.43
2023-04-17T04:41:53.401Z,12.27
2023-04-17T04:44:22.612Z,12.93
2023-04-17T04:46:49.299Z,12.13
2023-04-17T04:49:18.390Z,12.57
2023-04-17T04:51:47.779Z,12.77
2023-04-17T04:54:14.458Z,13.13
2023-04-17T04:56:44.778Z,11.87
2023-04-17T04:59:12.149Z,12.47
2023-04-17T05:01:41.397Z,26.37
2023-04-17T05:04:08.274Z,18.07
2023-04-17T05:06:35.203Z,10.87
2023-04-17T05:09:01.843Z,12.77
2023-04-17T05:11:28.794Z,18.13
2023-04-17T05:13:55.427Z,15.43
2023-04-17T05:16:22.368Z,12.67
2023-04-17T05:18:51.344Z,14.73
2023-04-17T05:21:20.505Z,10.17
2023-04-17T05:23:49.401Z,13.43
2023-04-17T05:26:16.330Z,17.97
2023-04-17T05:28:45.100Z,17.80
2023-04-17T05:31:14.448Z,14.27
2023-04-17T05:33:41.096Z,18.37
2023-04-17T05:36:12.929Z,19.70
2023-04-17T05:38:39.612Z,21.27
2023-04-17T05:41:11.305Z,16.40
2023-04-17T05:43:40.832Z,17.50
2023-04-17T05:46:07.580Z,24.07
2023-04-17T05:48:34.432Z,13.13
2023-04-17T05:51:01.267Z,18.30
2023-04-17T05:53:30.302Z,23.63
2023-04-17T05:55:57.104Z,29.90
2023-04-17T05:58:24.597Z,13.93
2023-04-17T06:00:52.376Z,19.37
2023-04-17T06:03:21.784Z,21.67
2023-04-17T06:05:51.929Z,17.53
2023-04-17T06:08:21.532Z,19.70
2023-04-17T06:10:50.159Z,53.17
2023-04-17T06:13:21.643Z,23.73
2023-04-17T06:15:51.494Z,30.27
2023-04-17T06:18:18.261Z,14.13
2023-04-17T06:20:48.205Z,14.47
2023-04-17T06:23:17.064Z,15.47
2023-04-17T06:25:43.729Z,13.83
2023-04-17T06:28:10.627Z,11.53
2023-04-17T06:30:39.761Z,10.83
2023-04-17T06:33:08.918Z,14.50
2023-04-17T06:35:36.588Z,12.43
2023-04-17T06:38:03.271Z,15.27
2023-04-17T06:40:29.914Z,15.27
2023-04-17T06:42:59.128Z,12.43
2023-04-17T06:45:25.948Z,12.63
2023-04-17T06:47:52.580Z,14.93
2023-04-17T06:50:21.758Z,14.73
2023-04-17T06:52:48.511Z,18.77
2023-04-17T06:55:15.365Z,15.90
2023-04-17T06:57:42.095Z,15.23
2023-04-17T07:00:11.791Z,15.23
2023-04-17T07:02:45.795Z,12.00
2023-04-17T07:05:13.212Z,15.30
2023-04-17T07:07:41.083Z,12.07
2023-04-17T07:10:08.150Z,10.93
2023-04-17T07:12:34.883Z,13.30
2023-04-17T07:15:01.954Z,11.20
2023-04-17T07:17:31.324Z,8.73
2023-04-17T07:19:58.096Z,8.50
2023-04-17T07:22:27.564Z,13.10
2023-04-17T07:24:54.396Z,14.77
2023-04-17T07:27:21.897Z,13.15
2023-04-17T07:29:54.374Z,11.70
2023-04-17T07:32:24.466Z,7.27
2023-04-17T07:34:51.507Z,13.33
2023-04-17T07:37:18.234Z,11.93
2023-04-17T07:39:48.112Z,10.07
2023-04-17T07:42:16.542Z,9.57
2023-04-17T07:44:45.557Z,7.82
2023-04-17T07:47:12.385Z,11.10
2023-04-17T07:49:41.739Z,6.27
2023-04-17T07:52:08.807Z,6.27
2023-04-17T07:54:37.740Z,5.10
2023-04-17T07:57:08.250Z,6.07
2023-04-17T07:59:36.817Z,7.90
2023-04-17T08:02:03.862Z,9.48
2023-04-17T08:04:33.467Z,6.03
2023-04-17T08:07:00.437Z,10.83
2023-04-17T08:09:31.833Z,4.60
2023-04-17T08:11:58.609Z,6.07
2023-04-17T08:14:25.622Z,9.17
2023-04-17T08:16:55.074Z,4.83
2023-04-17T08:19:21.769Z,9.20
2023-04-17T08:21:49.472Z,6.57
2023-04-17T08:24:19.136Z,5.53
2023-04-17T08:26:46.758Z,11.10
2023-04-17T08:29:16.176Z,17.80
2023-04-17T08:31:42.940Z,9.83
2023-04-17T08:34:14.783Z,6.40
2023-04-17T08:36:43.251Z,12.48
2023-04-17T08:39:12.363Z,8.27
2023-04-17T08:41:54.263Z,8.83
2023-04-17T08:44:23.735Z,5.47
2023-04-17T08:46:51.590Z,13.87
2023-04-17T08:49:21.186Z,27.30
2023-04-17T08:51:47.888Z,10.67
2023-04-17T08:54:14.653Z,28.47
2023-04-17T08:56:43.947Z,10.10
2023-04-17T08:59:11.315Z,10.37
2023-04-17T09:01:38.336Z,18.90
2023-04-17T09:04:05.451Z,16.03
2023-04-17T09:06:54.430Z,12.67
2023-04-17T09:09:21.649Z,9.93
2023-04-17T09:12:09.920Z,13.27
2023-04-17T09:14:43.671Z,19.33
2023-04-17T09:17:10.479Z,9.10
2023-04-17T09:19:37.377Z,4.50
2023-04-17T09:22:22.807Z,9.47
2023-04-17T09:24:52.824Z,3.67
2023-04-17T09:27:29.502Z,6.70
2023-04-17T09:30:03.884Z,4.50
2023-04-17T09:32:32.504Z,8.90
2023-04-17T09:35:01.498Z,19.50
2023-04-17T09:37:49.310Z,11.67
2023-04-17T09:40:16.756Z,17.13
2023-04-17T09:42:57.050Z,6.27
2023-04-17T09:45:25.126Z,8.07
2023-04-17T09:47:56.198Z,11.90
2023-04-17T09:50:24.884Z,11.70
2023-04-17T09:52:56.323Z,11.47
2023-04-17T09:55:24.861Z,10.00
2023-04-17T09:58:01.170Z,9.00
2023-04-17T10:00:30.985Z,17.57
2023-04-17T10:03:02.536Z,9.80
2023-04-17T10:05:32.521Z,5.90
2023-04-17T10:07:59.701Z,9.13
2023-04-17T10:10:33.683Z,9.37
2023-04-17T10:13:03.384Z,7.57
2023-04-17T10:15:33.952Z,8.70
2023-04-17T10:18:25.236Z,9.40
2023-04-17T10:20:56.107Z,4.27
2023-04-17T10:23:36.451Z,6.43
2023-04-17T10:26:22.164Z,7.07
2023-04-17T10:28:49.772Z,6.17
2023-04-17T10:31:19.671Z,4.70
2023-04-17T10:33:54.046Z,4.93
2023-04-17T10:36:39.387Z,4.50
2023-04-17T10:39:18.619Z,4.60
2023-04-17T10:42:04.556Z,5.53
2023-04-17T10:44:35.245Z,8.50
2023-04-17T10:47:09.986Z,9.63
2023-04-17T10:49:51.143Z,9.50
2023-04-17T10:52:33.324Z,6.10
2023-04-17T10:55:22.979Z,10.53
2023-04-17T10:57:55.848Z,3.83
2023-04-17T11:00:33.317Z,3.33
2023-04-17T11:03:01.952Z,5.90
2023-04-17T11:05:30.245Z,13.83
2023-04-17T11:07:58.035Z,8.30
2023-04-17T11:10:25.068Z,9.53
2023-04-17T11:12:54.040Z,8.00
2023-04-17T11:15:31.587Z,8.17
2023-04-17T11:18:02.250Z,8.93
2023-04-17T11:20:33.322Z,5.13
2023-04-17T11:23:04.499Z,4.13
2023-04-17T11:25:34.910Z,3.83
2023-04-17T11:28:05.309Z,2.67
2023-04-17T11:30:36.664Z,2.40
2023-04-17T11:33:07.910Z,10.97
2023-04-17T11:35:37.683Z,5.43
2023-04-17T11:38:06.079Z,5.57
2023-04-17T11:40:35.357Z,4.43
2023-04-17T11:43:10.742Z,3.93
2023-04-17T11:45:40.446Z,4.13
2023-04-17T11:48:12.173Z,3.47
2023-04-17T11:50:43.649Z,4.00
2023-04-17T11:53:16.289Z,4.23
2023-04-17T11:55:46.382Z,5.40
2023-04-17T11:58:14.378Z,4.17
2023-04-17T12:00:43.697Z,4.05
2023-04-17T12:03:35.991Z,10.27
2023-04-17T12:06:05.223Z,3.73
2023-04-17T12:09:02.058Z,5.73
2023-04-17T12:11:29.159Z,4.23
2023-04-17T12:13:56.641Z,15.50
2023-04-17T12:16:27.430Z,9.63
2023-04-17T12:18:59.060Z,8.73
2023-04-17T12:21:25.878Z,4.17
2023-04-17T12:23:57.108Z,6.27
2023-04-17T12:26:25.216Z,8.63
2023-04-17T12:28:52.187Z,7.40
2023-04-17T12:31:18.910Z,9.57
2023-04-17T12:33:47.905Z,11.37
2023-04-17T12:36:14.768Z,5.63
2023-04-17T12:38:43.111Z,10.90
2023-04-17T12:41:10.301Z,14.53
2023-04-17T12:43:36.958Z,12.93
2023-04-17T12:46:03.668Z,12.27
2023-04-17T12:48:32.695Z,8.37
2023-04-17T12:50:59.811Z,3.87
2023-04-17T12:53:26.462Z,6.20
2023-04-17T12:55:53.240Z,7.33
2023-04-17T12:58:22.183Z,9.63
2023-04-17T13:00:48.902Z,9.00
2023-04-17T13:03:15.734Z,7.00
2023-04-17T13:05:42.957Z,4.90
2023-04-17T13:08:14.718Z,5.10
2023-04-17T13:10:42.584Z,4.10
2023-04-17T13:13:09.394Z,3.20
2023-04-17T13:15:41.158Z,3.30
2023-04-17T13:18:08.249Z,4.87
2023-04-17T13:20:35.178Z,4.97
2023-04-17T13:23:06.561Z,2.38
2023-04-17T13:25:35.564Z,1.63
2023-04-17T13:28:04.702Z,2.10
2023-04-17T13:30:37.265Z,1.90
2023-04-17T13:33:04.319Z,13.60
2023-04-17T13:35:31.376Z,9.00
2023-04-17T13:38:02.214Z,7.17
2023-04-17T13:40:29.986Z,2.50
2023-04-17T13:42:58.884Z,3.30
2023-04-17T13:45:25.696Z,7.97
2023-04-17T13:47:52.524Z,2.67
2023-04-17T13:50:19.518Z,6.53
2023-04-17T13:52:46.325Z,7.67
2023-04-17T13:55:14.658Z,6.83
2023-04-17T13:57:41.435Z,3.17
2023-04-17T14:00:11.232Z,2.00
2023-04-17T14:02:38.213Z,4.97
2023-04-17T14:05:07.593Z,3.60
2023-04-17T14:07:34.325Z,7.93
2023-04-17T14:10:00.987Z,7.77
2023-04-17T14:12:27.866Z,11.20
2023-04-17T14:14:56.039Z,5.43
2023-04-17T14:17:26.749Z,4.17
2023-04-17T14:19:53.776Z,10.53
2023-04-17T14:22:20.468Z,6.23
2023-04-17T14:24:47.563Z,10.47
2023-04-17T14:27:18.960Z,6.50
2023-04-17T14:29:45.663Z,4.17
2023-04-17T14:32:14.872Z,3.70
2023-04-17T14:34:41.566Z,6.50
2023-04-17T14:37:08.329Z,11.03
2023-04-17T14:39:35.158Z,15.87
2023-04-17T14:42:04.416Z,6.60
2023-04-17T14:44:33.350Z,4.53
2023-04-17T14:47:03.036Z,3.20
2023-04-17T14:49:34.501Z,12.97
2023-04-17T14:52:03.494Z,10.23
2023-04-17T14:54:30.306Z,5.83
2023-04-17T14:56:58.097Z,4.47
2023-04-17T14:59:27.000Z,5.53
2023-04-17T15:01:56.206Z,6.90
2023-04-17T15:04:26.106Z,9.97
2023-04-17T15:06:53.261Z,9.53
2023-04-17T15:09:19.927Z,11.57
2023-04-17T15:11:47.363Z,5.20
2023-04-17T15:14:14.138Z,6.97
2023-04-17T15:16:43.593Z,10.53
2023-04-17T15:19:10.510Z,9.00
2023-04-17T15:21:39.541Z,7.80
2023-04-17T15:24:08.739Z,8.17
2023-04-17T15:26:35.551Z,9.40
2023-04-17T15:29:03.065Z,7.63
2023-04-17T15:31:32.313Z,8.70
2023-04-17T15:33:59.080Z,4.33
2023-04-17T15:36:33.820Z,4.67
2023-04-17T15:39:05.371Z,9.15
2023-04-17T15:41:32.068Z,3.87
2023-04-17T15:43:58.790Z,8.97
2023-04-17T15:46:25.608Z,9.30
2023-04-17T15:49:07.690Z,6.50
2023-04-17T15:51:39.608Z,6.27
2023-04-17T15:54:11.627Z,4.97
2023-04-17T15:56:39.197Z,5.93
2023-04-17T15:59:08.484Z,5.07
2023-04-17T16:01:35.460Z,5.90
2023-04-17T16:04:02.792Z,9.93
2023-04-17T16:06:29.591Z,6.23
2023-04-17T16:08:56.300Z,6.03
2023-04-17T16:11:25.611Z,9.57
2023-04-17T16:13:52.556Z,7.53
2023-04-17T16:16:19.284Z,5.83
2023-04-17T16:18:49.003Z,10.10
2023-04-17T16:21:15.790Z,3.70
2023-04-17T16:23:48.712Z,8.23
2023-04-17T16:26:15.688Z,5.80
2023-04-17T16:28:43.128Z,10.43
2023-04-17T16:31:11.155Z,10.60
2023-04-17T16:33:39.658Z,12.83
2023-04-17T16:36:06.567Z,7.03
2023-04-17T16:38:35.378Z,5.80
2023-04-17T16:41:04.634Z,10.73
2023-04-17T16:43:31.453Z,15.07
2023-04-17T16:45:58.521Z,14.67
2023-04-17T16:48:26.471Z,10.70
2023-04-17T16:50:53.590Z,6.60
2023-04-17T16:53:22.535Z,8.87
2023-04-17T16:55:51.417Z,8.57
2023-04-17T16:58:18.506Z,7.60
2023-04-17T17:00:45.330Z,8.67
2023-04-17T17:03:14.228Z,5.15
2023-04-17T17:05:45.607Z,4.67
2023-04-17T17:08:13.301Z,5.40
2023-04-17T17:10:40.758Z,3.33
2023-04-17T17:13:09.974Z,6.47
2023-04-17T17:15:39.433Z,6.80
2023-04-17T17:18:06.299Z,3.73
2023-04-17T17:20:33.171Z,5.97
2023-04-17T17:23:00.059Z,5.20
2023-04-17T17:25:26.818Z,3.60
2023-04-17T17:27:58.482Z,5.93
2023-04-17T17:30:25.329Z,4.53
2023-04-17T17:32:52.362Z,5.53
2023-04-17T17:35:23.644Z,3.90
2023-04-17T17:37:50.452Z,5.70
2023-04-17T17:40:17.410Z,3.70
2023-04-17T17:42:48.601Z,3.03
2023-04-17T17:45:17.745Z,3.10
2023-04-17T17:47:44.749Z,5.57
2023-04-17T17:50:11.588Z,3.93
2023-04-17T17:52:40.675Z,3.83
2023-04-17T17:55:07.711Z,4.03
2023-04-17T17:57:45.998Z,6.93
2023-04-17T18:00:16.125Z,4.87
2023-04-17T18:02:42.999Z,3.33
2023-04-17T18:05:09.915Z,2.90
2023-04-17T18:07:41.033Z,3.87
2023-04-17T18:10:08.302Z,2.67
2023-04-17T18:12:35.078Z,2.70
2023-04-17T18:15:04.547Z,3.47
2023-04-17T18:17:32.538Z,2.93
2023-04-17T18:19:59.242Z,2.87
2023-04-17T18:22:26.048Z,2.67
2023-04-17T18:24:55.594Z,3.23
2023-04-17T18:27:24.762Z,2.80
2023-04-17T18:29:54.056Z,2.90
2023-04-17T18:32:20.979Z,3.17
2023-04-17T18:34:51.318Z,2.73
2023-04-17T18:37:18.359Z,3.47
2023-04-17T18:39:45.447Z,2.50
2023-04-17T18:42:14.553Z,2.20
2023-04-17T18:44:41.943Z,2.17
2023-04-17T18:47:13.324Z,2.47
2023-04-17T18:49:40.202Z,2.20
2023-04-17T18:52:09.135Z,2.23
2023-04-17T18:54:40.653Z,2.83
2023-04-17T18:57:07.373Z,2.03
2023-04-17T18:59:38.715Z,2.47
2023-04-17T19:02:10.285Z,1.60
2023-04-17T19:04:37.183Z,2.50
2023-04-17T19:07:06.413Z,3.37
2023-04-17T19:09:33.086Z,1.90
2023-04-17T19:11:59.817Z,2.13
2023-04-17T19:14:26.585Z,1.80
2023-04-17T19:16:55.472Z,1.83
2023-04-17T19:19:26.849Z,1.70
2023-04-17T19:21:53.549Z,1.80
2023-04-17T19:24:22.444Z,1.90
2023-04-17T19:26:51.716Z,1.70
2023-04-17T19:29:18.493Z,1.70
2023-04-17T19:31:45.565Z,1.70
2023-04-17T19:34:12.346Z,1.60
2023-04-17T19:36:44.159Z,1.80
2023-04-17T19:39:11.137Z,3.63
2023-04-17T19:41:37.956Z,2.00
2023-04-17T19:44:04.830Z,1.80
2023-04-17T19:46:33.979Z,2.10
2023-04-17T19:49:00.667Z,2.40
2023-04-17T19:51:27.907Z,1.90
2023-04-17T19:53:54.786Z,2.33
2023-04-17T19:56:21.599Z,2.20
2023-04-17T19:58:48.391Z,2.17
2023-04-17T20:01:15.389Z,1.57
2023-04-17T20:03:43.770Z,1.77
2023-04-17T20:06:10.977Z,1.70
2023-04-17T20:08:40.224Z,1.83
2023-04-17T20:11:12.140Z,3.30
2023-04-17T20:13:39.267Z,2.13
2023-04-17T20:16:06.399Z,2.70
2023-04-17T20:18:37.258Z,2.20
2023-04-17T20:21:07.200Z,2.40
2023-04-17T20:23:34.025Z,2.43
2023-04-17T20:26:00.685Z,3.07
2023-04-17T20:28:29.038Z,2.30
2023-04-17T20:30:56.234Z,3.27
2023-04-17T20:33:22.989Z,2.30
2023-04-17T20:35:49.818Z,3.13
2023-04-17T20:38:16.915Z,2.73
2023-04-17T20:40:43.862Z,3.00
2023-04-17T20:43:13.138Z,3.30
2023-04-17T20:45:40.304Z,3.20
2023-04-17T20:48:07.131Z,4.13
2023-04-17T20:50:33.950Z,3.77
2023-04-17T20:53:00.815Z,4.03
2023-04-17T20:55:27.775Z,3.80
2023-04-17T20:58:20.716Z,3.27
2023-04-17T21:01:00.783Z,3.60
2023-04-17T21:03:33.025Z,3.23
2023-04-17T21:06:00.501Z,3.90
2023-04-17T21:08:29.465Z,3.60
2023-04-17T21:10:56.365Z,3.87
2023-04-17T21:13:25.364Z,3.50
2023-04-17T21:15:55.070Z,3.33
2023-04-17T21:18:27.821Z,3.93
2023-04-17T21:20:54.537Z,5.37
2023-04-17T21:23:21.376Z,4.80
2023-04-17T21:25:53.592Z,4.00
2023-04-17T21:28:22.872Z,5.23
2023-04-17T21:30:49.835Z,4.43
2023-04-17T21:33:16.764Z,4.57
2023-04-17T21:35:43.554Z,4.23
2023-04-17T21:38:10.346Z,3.80
2023-04-17T21:40:50.560Z,4.30
2023-04-17T21:43:18.339Z,5.27
2023-04-17T21:45:45.193Z,3.93
2023-04-17T21:48:14.325Z,4.30
2023-04-17T21:50:41.614Z,4.10
2023-04-17T21:53:11.055Z,5.73
2023-04-17T21:55:38.393Z,4.83
2023-04-17T21:58:07.599Z,4.67
2023-04-17T22:00:34.424Z,5.27
2023-04-17T22:03:01.404Z,6.07
2023-04-17T22:05:30.388Z,5.70
2023-04-17T22:07:57.198Z,5.33
2023-04-17T22:10:26.880Z,6.80
2023-04-17T22:12:56.118Z,6.20
2023-04-17T22:15:26.127Z,5.20
2023-04-17T22:17:55.491Z,5.17
2023-04-17T22:20:22.294Z,5.63
2023-04-17T22:22:51.511Z,6.10
2023-04-17T22:25:18.323Z,5.93
2023-04-17T22:27:44.990Z,6.70
2023-04-17T22:30:11.988Z,6.53
2023-04-17T22:32:38.913Z,7.25
2023-04-17T22:35:06.679Z,7.93
2023-04-17T22:37:33.548Z,6.37
2023-04-17T22:40:00.308Z,7.67
2023-04-17T22:42:27.126Z,7.27
2023-04-17T22:44:53.901Z,7.27
2023-04-17T22:47:21.921Z,6.93
2023-04-17T22:49:48.830Z,6.40
2023-04-17T22:52:15.619Z,7.10
2023-04-17T22:54:42.354Z,7.87
2023-04-17T22:57:10.659Z,7.83
2023-04-17T22:59:40.038Z,7.90
2023-04-17T23:02:06.928Z,10.53
2023-04-17T23:04:33.952Z,6.53
2023-04-17T23:07:01.153Z,7.97
2023-04-17T23:09:30.075Z,6.60
2023-04-17T23:11:59.425Z,7.23
2023-04-17T23:14:28.406Z,7.17
2023-04-17T23:16:55.222Z,6.47
2023-04-17T23:19:22.537Z,7.13
2023-04-17T23:21:49.366Z,6.93
2023-04-17T23:24:16.132Z,6.57
2023-04-17T23:26:42.984Z,7.20
2023-04-17T23:29:09.726Z,6.87
2023-04-17T23:31:42.832Z,6.63
2023-04-17T23:34:09.693Z,6.63
2023-04-17T23:36:36.440Z,8.00
2023-04-17T23:39:05.185Z,7.00
2023-04-17T23:41:33.806Z,7.73
2023-04-17T23:44:00.590Z,6.97
2023-04-17T23:46:27.371Z,7.23
2023-04-17T23:48:54.100Z,6.50
2023-04-17T23:51:26.171Z,7.00
2023-04-17T23:53:53.078Z,7.07
2023-04-17T23:56:22.482Z,8.10
2023-04-17T23:58:49.253Z,11.27
